createdAt,value
2022-08-01T00:00:48.200Z,0.00
2022-08-01T00:01:49.866Z,0.00
2022-08-01T00:02:50.786Z,0.00
2022-08-01T00:03:49.128Z,0.00
2022-08-01T00:04:49.439Z,0.00
2022-08-01T00:05:49.745Z,0.00
2022-08-01T00:06:50.059Z,0.00
2022-08-01T00:07:52.227Z,0.00
2022-08-01T00:08:52.407Z,0.00
2022-08-01T00:09:50.915Z,0.00
2022-08-01T00:10:51.226Z,0.00
2022-08-01T00:11:59.554Z,0.00
2022-08-01T00:12:54.698Z,0.00
2022-08-01T00:13:53.883Z,0.00
2022-08-01T00:14:52.391Z,0.00
2022-08-01T00:15:54.381Z,0.00
2022-08-01T00:16:54.878Z,0.00
2022-08-01T00:17:53.265Z,0.00
2022-08-01T00:18:55.443Z,0.00
2022-08-01T00:19:54.831Z,0.00
2022-08-01T00:20:54.109Z,0.00
2022-08-01T00:21:56.289Z,0.00
2022-08-01T00:22:56.473Z,0.00
2022-08-01T00:23:56.629Z,0.00
2022-08-01T00:24:55.259Z,0.00
2022-08-01T00:25:55.571Z,0.00
2022-08-01T00:26:55.869Z,0.00
2022-08-01T00:27:58.049Z,0.00
2022-08-01T00:28:58.237Z,0.00
2022-08-01T00:30:13.860Z,0.00
2022-08-01T00:30:58.063Z,0.00
2022-08-01T00:31:57.294Z,0.00
2022-08-01T00:32:57.614Z,0.00
2022-08-01T00:33:59.775Z,0.00
2022-08-01T00:34:58.154Z,0.00
2022-08-01T00:35:58.458Z,0.00
2022-08-01T00:36:58.773Z,0.00
2022-08-01T00:38:00.955Z,0.00
2022-08-01T00:38:59.336Z,0.00
2022-08-01T00:40:01.524Z,0.00
2022-08-01T00:40:59.904Z,0.00
2022-08-01T00:42:00.270Z,0.00
2022-08-01T00:43:00.449Z,0.00
2022-08-01T00:44:02.623Z,0.00
2022-08-01T00:45:01.009Z,0.00
2022-08-01T00:46:01.309Z,0.00
2022-08-01T00:47:04.952Z,0.00
2022-08-01T00:48:01.846Z,0.00
2022-08-01T00:49:06.021Z,0.00
2022-08-01T00:50:05.668Z,0.00
2022-08-01T00:51:04.392Z,0.00
2022-08-01T00:52:04.248Z,0.00
2022-08-01T00:53:05.177Z,0.00
2022-08-01T00:54:06.816Z,0.00
2022-08-01T00:55:07.007Z,0.00
2022-08-01T00:56:05.090Z,0.00
2022-08-01T00:57:09.898Z,0.00
2022-08-01T00:58:06.678Z,0.00
2022-08-01T00:59:06.989Z,0.00
2022-08-01T01:00:07.118Z,0.00
2022-08-01T01:01:06.695Z,0.00
2022-08-01T01:02:14.973Z,0.00
2022-08-01T01:03:08.263Z,0.00
2022-08-01T01:04:08.840Z,0.00
2022-08-01T01:05:08.605Z,0.00
2022-08-01T01:06:07.096Z,0.00
2022-08-01T01:07:07.403Z,0.00
2022-08-01T01:08:07.698Z,0.00
2022-08-01T01:09:08.006Z,0.00
2022-08-01T01:10:10.185Z,0.00
2022-08-01T01:11:08.653Z,0.00
2022-08-01T01:12:09.428Z,0.00
2022-08-01T01:13:09.290Z,0.00
2022-08-01T01:14:09.599Z,0.00
2022-08-01T01:15:11.787Z,0.00
2022-08-01T01:16:12.694Z,0.00
2022-08-01T01:17:12.405Z,0.00
2022-08-01T01:18:10.779Z,0.00
2022-08-01T01:19:11.095Z,0.00
2022-08-01T01:20:12.283Z,0.00
2022-08-01T01:21:13.474Z,0.00
2022-08-01T01:22:13.657Z,0.00
2022-08-01T01:23:12.298Z,0.00
2022-08-01T01:24:14.625Z,0.00
2022-08-01T01:25:13.813Z,0.00
2022-08-01T01:26:14.994Z,0.00
2022-08-01T01:27:15.154Z,0.00
2022-08-01T01:28:15.307Z,0.00
2022-08-01T01:29:15.972Z,0.00
2022-08-01T01:30:16.143Z,0.00
2022-08-01T01:31:14.654Z,0.00
2022-08-01T01:32:16.836Z,0.00
2022-08-01T01:33:15.217Z,0.00
2022-08-01T01:34:15.527Z,0.00
2022-08-01T01:35:15.844Z,0.00
2022-08-01T01:36:18.016Z,0.00
2022-08-01T01:37:18.209Z,0.00
2022-08-01T01:38:16.707Z,0.00
2022-08-01T01:39:17.016Z,0.00
2022-08-01T01:40:17.331Z,0.00
2022-08-01T01:41:19.498Z,0.00
2022-08-01T01:42:19.675Z,0.00
2022-08-01T01:43:18.187Z,0.00
2022-08-01T01:44:18.497Z,0.00
2022-08-01T01:45:20.702Z,0.00
2022-08-01T01:46:19.082Z,0.00
2022-08-01T01:47:19.385Z,0.00
2022-08-01T01:48:21.559Z,0.00
2022-08-01T01:49:19.968Z,0.00
2022-08-01T01:50:22.103Z,0.00
2022-08-01T01:51:22.288Z,0.00
2022-08-01T01:52:22.773Z,0.00
2022-08-01T01:53:21.033Z,0.00
2022-08-01T01:54:21.339Z,0.00
2022-08-01T01:55:21.652Z,0.00
2022-08-01T01:56:21.957Z,0.00
2022-08-01T01:57:24.135Z,0.00
2022-08-01T01:58:24.325Z,0.00
2022-08-01T01:59:25.720Z,0.00
2022-08-01T02:00:24.696Z,0.00
2022-08-01T02:02:05.117Z,0.00
2022-08-01T02:02:24.682Z,0.00
2022-08-01T02:03:25.838Z,0.00
2022-08-01T02:04:25.551Z,0.00
2022-08-01T02:05:24.554Z,0.00
2022-08-01T02:06:26.737Z,0.00
2022-08-01T02:07:26.926Z,0.00
2022-08-01T02:08:27.228Z,0.00
2022-08-01T02:09:27.360Z,0.00
2022-08-01T02:10:28.535Z,0.00
2022-08-01T02:11:26.218Z,0.00
2022-08-01T02:12:28.432Z,0.00
2022-08-01T02:13:26.849Z,0.00
2022-08-01T02:14:28.997Z,0.00
2022-08-01T02:15:27.384Z,0.00
2022-08-01T02:16:27.686Z,0.00
2022-08-01T02:17:29.851Z,0.00
2022-08-01T02:18:29.582Z,0.00
2022-08-01T02:19:28.465Z,0.00
2022-08-01T02:20:30.641Z,0.00
2022-08-01T02:21:29.024Z,0.00
2022-08-01T02:22:29.319Z,0.00
2022-08-01T02:23:29.627Z,0.00
2022-08-01T02:24:30.723Z,0.00
2022-08-01T02:25:32.122Z,0.00
2022-08-01T02:26:30.508Z,0.00
2022-08-01T02:27:32.700Z,0.00
2022-08-01T02:28:31.087Z,0.00
2022-08-01T02:29:31.391Z,0.00
2022-08-01T02:30:33.569Z,0.00
2022-08-01T02:31:31.959Z,0.00
2022-08-01T02:32:34.132Z,0.00
2022-08-01T02:33:32.516Z,0.00
2022-08-01T02:34:34.694Z,0.00
2022-08-01T02:35:34.875Z,0.00
2022-08-01T02:36:34.410Z,0.00
2022-08-01T02:37:33.655Z,0.00
2022-08-01T02:38:33.972Z,0.00
2022-08-01T02:39:34.283Z,0.00
2022-08-01T02:40:36.461Z,0.00
2022-08-01T02:41:34.846Z,0.00
2022-08-01T02:42:35.153Z,0.00
2022-08-01T02:43:35.493Z,0.00
2022-08-01T02:44:39.107Z,0.00
2022-08-01T02:45:37.842Z,0.00
2022-08-01T02:46:36.470Z,0.00
2022-08-01T02:47:38.646Z,0.00
2022-08-01T02:48:37.026Z,0.00
2022-08-01T02:49:39.229Z,0.00
2022-08-01T02:50:37.601Z,0.00
2022-08-01T02:51:39.785Z,0.00
2022-08-01T02:52:39.961Z,0.00
2022-08-01T02:53:44.269Z,0.00
2022-08-01T02:54:39.794Z,4.00
2022-08-01T02:55:40.982Z,4.00
2022-08-01T02:56:40.160Z,4.00
2022-08-01T02:57:52.302Z,4.00
2022-08-01T02:58:41.705Z,4.00
2022-08-01T02:59:41.251Z,4.00
2022-08-01T03:00:43.794Z,4.00
2022-08-01T03:01:42.590Z,4.00
2022-08-01T03:02:42.150Z,4.00
2022-08-01T03:03:43.333Z,8.00
2022-08-01T03:04:42.721Z,8.00
2022-08-01T03:05:42.887Z,8.00
2022-08-01T03:06:45.213Z,8.00
2022-08-01T03:07:43.456Z,8.00
2022-08-01T03:08:44.797Z,12.00
2022-08-01T03:09:44.032Z,12.00
2022-08-01T03:10:44.194Z,16.00
2022-08-01T03:11:45.043Z,16.00
2022-08-01T03:12:44.773Z,20.00
2022-08-01T03:13:45.994Z,20.00
2022-08-01T03:14:44.400Z,24.00
2022-08-01T03:15:44.728Z,24.00
2022-08-01T03:16:45.054Z,28.00
2022-08-01T03:17:45.371Z,28.00
2022-08-01T03:18:46.573Z,32.00
2022-08-01T03:19:45.953Z,40.00
2022-08-01T03:20:46.269Z,44.00
2022-08-01T03:21:48.439Z,48.00
2022-08-01T03:22:48.641Z,52.00
2022-08-01T03:23:52.271Z,56.00
2022-08-01T03:24:50.865Z,56.00
2022-08-01T03:25:49.738Z,68.00
2022-08-01T03:26:48.013Z,80.00
2022-08-01T03:27:48.333Z,96.00
2022-08-01T03:28:50.536Z,108.00
2022-08-01T03:29:50.708Z,112.00
2022-08-01T03:30:50.903Z,116.00
2022-08-01T03:31:50.775Z,136.00
2022-08-01T03:32:51.469Z,156.00
2022-08-01T03:33:51.737Z,176.00
2022-08-01T03:34:52.375Z,204.00
2022-08-01T03:35:52.535Z,208.00
2022-08-01T03:36:50.943Z,208.00
2022-08-01T03:38:14.893Z,224.00
2022-08-01T03:38:54.459Z,264.00
2022-08-01T03:39:51.879Z,268.00
2022-08-01T03:40:52.219Z,288.00
2022-08-01T03:41:56.472Z,320.00
2022-08-01T03:42:52.855Z,380.00
2022-08-01T03:43:53.197Z,408.00
2022-08-01T03:44:55.371Z,432.00
2022-08-01T03:45:53.777Z,452.00
2022-08-01T03:46:54.130Z,532.00
2022-08-01T03:47:54.462Z,596.00
2022-08-01T03:48:54.908Z,576.00
2022-08-01T03:49:57.037Z,540.00
2022-08-01T03:50:55.325Z,568.00
2022-08-01T03:51:55.670Z,528.00
2022-08-01T03:52:57.849Z,660.00
2022-08-01T03:53:58.013Z,632.00
2022-08-01T03:54:58.192Z,544.00
2022-08-01T03:55:56.853Z,632.00
2022-08-01T03:56:57.210Z,632.00
2022-08-01T03:57:57.423Z,744.00
2022-08-01T03:58:57.766Z,784.00
2022-08-01T03:59:59.940Z,836.00
2022-08-01T04:00:58.376Z,876.00
2022-08-01T04:01:58.694Z,936.00
2022-08-01T04:02:59.042Z,996.00
2022-08-01T04:04:01.221Z,1008.00
2022-08-01T04:04:59.644Z,1052.00
2022-08-01T04:06:01.811Z,1048.00
2022-08-01T04:07:00.154Z,1108.00
2022-08-01T04:08:00.375Z,1176.00
2022-08-01T04:09:00.603Z,1228.00
2022-08-01T04:10:02.784Z,1280.00
2022-08-01T04:11:01.086Z,1316.00
2022-08-01T04:12:12.209Z,1328.00
2022-08-01T04:13:02.649Z,1228.00
2022-08-01T04:14:01.922Z,1220.00
2022-08-01T04:15:05.099Z,1264.00
2022-08-01T04:16:02.520Z,1288.00
2022-08-01T04:17:02.877Z,1368.00
2022-08-01T04:18:03.215Z,1292.00
2022-08-01T04:19:03.702Z,1328.00
2022-08-01T04:20:03.882Z,1304.00
2022-08-01T04:21:06.085Z,1332.00
2022-08-01T04:22:05.888Z,1316.00
2022-08-01T04:23:04.827Z,1300.00
2022-08-01T04:24:05.044Z,1268.00
2022-08-01T04:25:07.237Z,1280.00
2022-08-01T04:26:07.419Z,1492.00
2022-08-01T04:27:09.549Z,2376.00
2022-08-01T04:28:06.234Z,2908.00
2022-08-01T04:29:09.890Z,3380.00
2022-08-01T04:30:10.073Z,3292.00
2022-08-01T04:31:09.800Z,3428.00
2022-08-01T04:32:07.715Z,3560.00
2022-08-01T04:33:08.581Z,3484.00
2022-08-01T04:34:07.863Z,3268.00
2022-08-01T04:35:22.973Z,3436.00
2022-08-01T04:36:09.506Z,3424.00
2022-08-01T04:37:10.693Z,3488.00
2022-08-01T04:38:10.875Z,3624.00
2022-08-01T04:39:09.299Z,3684.00
2022-08-01T04:40:09.527Z,3716.00
2022-08-01T04:41:10.020Z,3808.00
2022-08-01T04:42:10.209Z,3712.00
2022-08-01T04:43:14.721Z,3784.00
2022-08-01T04:44:10.784Z,3964.00
2022-08-01T04:45:11.012Z,3992.00
2022-08-01T04:46:14.644Z,3948.00
2022-08-01T04:47:11.583Z,4012.00
2022-08-01T04:48:15.215Z,4088.00
2022-08-01T04:49:15.483Z,4144.00
2022-08-01T04:50:13.093Z,4144.00
2022-08-01T04:51:12.629Z,4184.00
2022-08-01T04:52:18.852Z,4412.00
2022-08-01T04:53:15.993Z,4388.00
2022-08-01T04:54:14.241Z,4320.00
2022-08-01T04:55:14.666Z,4468.00
2022-08-01T04:56:14.818Z,4544.00
2022-08-01T04:57:16.173Z,4588.00
2022-08-01T04:58:18.215Z,4604.00
2022-08-01T04:59:19.999Z,4680.00
2022-08-01T05:00:15.975Z,4724.00
2022-08-01T05:01:16.167Z,4796.00
2022-08-01T05:02:15.615Z,4856.00
2022-08-01T05:03:17.806Z,4836.00
2022-08-01T05:04:17.993Z,4980.00
2022-08-01T05:05:16.400Z,5040.00
2022-08-01T05:06:16.622Z,5080.00
2022-08-01T05:07:18.836Z,5256.00
2022-08-01T05:08:17.122Z,5196.00
2022-08-01T05:09:19.316Z,5208.00
2022-08-01T05:10:17.723Z,5348.00
2022-08-01T05:11:18.075Z,5556.00
2022-08-01T05:12:19.255Z,5544.00
2022-08-01T05:13:20.442Z,5640.00
2022-08-01T05:14:20.595Z,5588.00
2022-08-01T05:15:20.756Z,5824.00
2022-08-01T05:16:21.439Z,6424.00
2022-08-01T05:17:21.626Z,5956.00
2022-08-01T05:18:28.026Z,5976.00
2022-08-01T05:19:23.486Z,5956.00
2022-08-01T05:20:22.671Z,5980.00
2022-08-01T05:21:22.857Z,6064.00
2022-08-01T05:22:23.029Z,6276.00
2022-08-01T05:23:38.359Z,6496.00
2022-08-01T05:24:22.985Z,6516.00
2022-08-01T05:25:57.261Z,6652.00
2022-08-01T05:26:23.556Z,6736.00
2022-08-01T05:27:26.701Z,6868.00
2022-08-01T05:28:23.124Z,7052.00
2022-08-01T05:29:25.308Z,7164.00
2022-08-01T05:30:25.461Z,7228.00
2022-08-01T05:31:25.643Z,7312.00
2022-08-01T05:32:24.198Z,7332.00
2022-08-01T05:33:26.362Z,7432.00
2022-08-01T05:34:26.518Z,7392.00
2022-08-01T05:35:47.524Z,7356.00
2022-08-01T05:36:27.859Z,7416.00
2022-08-01T05:37:27.552Z,7236.00
2022-08-01T05:38:25.843Z,7196.00
2022-08-01T05:39:28.031Z,7120.00
2022-08-01T05:40:26.449Z,6988.00
2022-08-01T05:41:28.638Z,6992.00
2022-08-01T05:42:26.927Z,6864.00
2022-08-01T05:43:29.375Z,6904.00
2022-08-01T05:44:29.335Z,6932.00
2022-08-01T05:45:27.884Z,7244.00
2022-08-01T05:46:30.131Z,8668.00
2022-08-01T05:47:30.235Z,11584.00
2022-08-01T05:48:30.416Z,13732.00
2022-08-01T05:49:29.022Z,12972.00
2022-08-01T05:50:29.249Z,12344.00
2022-08-01T05:51:29.486Z,11420.00
2022-08-01T05:52:29.722Z,12368.00
2022-08-01T05:53:31.905Z,11976.00
2022-08-01T05:54:31.009Z,13076.00
2022-08-01T05:55:30.449Z,11468.00
2022-08-01T05:56:32.460Z,13472.00
2022-08-01T05:57:30.924Z,13740.00
2022-08-01T05:58:33.105Z,14144.00
2022-08-01T05:59:32.321Z,14304.00
2022-08-01T06:00:31.645Z,13796.00
2022-08-01T06:01:31.917Z,13576.00
2022-08-01T06:02:32.290Z,14708.00
2022-08-01T06:03:34.336Z,9048.00
2022-08-01T06:04:32.646Z,16512.00
2022-08-01T06:05:32.890Z,16736.00
2022-08-01T06:06:33.267Z,17824.00
2022-08-01T06:07:35.287Z,17568.00
2022-08-01T06:08:35.466Z,16320.00
2022-08-01T06:09:34.031Z,15252.00
2022-08-01T06:10:36.176Z,14900.00
2022-08-01T06:11:36.369Z,17440.00
2022-08-01T06:12:35.733Z,18336.00
2022-08-01T06:13:44.816Z,17216.00
2022-08-01T06:14:36.427Z,17888.00
2022-08-01T06:15:35.731Z,19168.00
2022-08-01T06:16:37.915Z,20512.00
2022-08-01T06:17:36.222Z,20800.00
2022-08-01T06:18:38.399Z,18880.00
2022-08-01T06:19:37.570Z,18560.00
2022-08-01T06:20:36.998Z,20064.00
2022-08-01T06:21:37.240Z,22432.00
2022-08-01T06:22:37.480Z,23584.00
2022-08-01T06:23:39.663Z,21632.00
2022-08-01T06:24:38.154Z,21760.00
2022-08-01T06:25:38.400Z,23424.00
2022-08-01T06:26:38.638Z,23040.00
2022-08-01T06:27:38.884Z,24672.00
2022-08-01T06:28:41.052Z,32672.00
2022-08-01T06:29:39.366Z,34848.00
2022-08-01T06:30:40.594Z,37568.00
2022-08-01T06:31:39.892Z,33056.00
2022-08-01T06:32:40.131Z,14428.00
2022-08-01T06:33:42.316Z,24544.00
2022-08-01T06:34:40.624Z,21728.00
2022-08-01T06:35:40.877Z,22688.00
2022-08-01T06:36:41.104Z,15152.00
2022-08-01T06:37:41.347Z,20416.00
2022-08-01T06:38:41.586Z,21376.00
2022-08-01T06:39:43.769Z,11100.00
2022-08-01T06:40:44.055Z,16704.00
2022-08-01T06:41:42.344Z,14344.00
2022-08-01T06:42:42.574Z,20896.00
2022-08-01T06:43:42.838Z,20448.00
2022-08-01T06:44:43.074Z,20640.00
2022-08-01T06:45:45.261Z,21152.00
2022-08-01T06:46:43.600Z,20768.00
2022-08-01T06:47:45.210Z,20416.00
2022-08-01T06:48:46.050Z,21056.00
2022-08-01T06:49:44.381Z,15548.00
2022-08-01T06:50:48.019Z,15708.00
2022-08-01T06:51:44.972Z,17408.00
2022-08-01T06:52:48.582Z,18816.00
2022-08-01T06:53:48.751Z,20832.00
2022-08-01T06:54:46.773Z,20288.00
2022-08-01T06:55:49.961Z,20864.00
2022-08-01T06:56:48.353Z,20064.00
2022-08-01T06:57:47.492Z,19520.00
2022-08-01T06:58:48.231Z,20448.00
2022-08-01T06:59:54.200Z,18656.00
2022-08-01T07:00:52.600Z,20032.00
2022-08-01T07:01:49.409Z,21280.00
2022-08-01T07:02:47.850Z,22656.00
2022-08-01T07:03:53.299Z,20224.00
2022-08-01T07:04:50.145Z,21120.00
2022-08-01T07:05:50.536Z,19520.00
2022-08-01T07:06:50.735Z,20064.00
2022-08-01T07:07:50.919Z,21728.00
2022-08-01T07:08:49.466Z,21248.00
2022-08-01T07:09:53.117Z,21888.00
2022-08-01T07:10:53.304Z,22336.00
2022-08-01T07:11:50.265Z,21440.00
2022-08-01T07:12:51.436Z,19936.00
2022-08-01T07:13:54.636Z,20992.00
2022-08-01T07:14:52.418Z,23232.00
2022-08-01T07:15:52.160Z,25792.00
2022-08-01T07:16:53.516Z,27104.00
2022-08-01T07:17:52.737Z,25408.00
2022-08-01T07:18:52.897Z,27008.00
2022-08-01T07:19:53.317Z,25792.00
2022-08-01T07:20:54.506Z,31392.00
2022-08-01T07:21:54.698Z,32288.00
2022-08-01T07:22:54.048Z,37376.00
2022-08-01T07:23:54.469Z,37056.00
2022-08-01T07:24:54.848Z,38496.00
2022-08-01T07:25:59.415Z,45120.00
2022-08-01T07:26:55.243Z,45472.00
2022-08-01T07:27:55.385Z,41888.00
2022-08-01T07:28:54.813Z,40256.00
2022-08-01T07:29:55.045Z,42496.00
2022-08-01T07:30:55.284Z,45376.00
2022-08-01T07:31:57.463Z,45728.00
2022-08-01T07:32:55.785Z,35584.00
2022-08-01T07:33:56.004Z,29728.00
2022-08-01T07:34:56.245Z,41504.00
2022-08-01T07:35:56.490Z,43072.00
2022-08-01T07:36:58.658Z,42528.00
2022-08-01T07:37:56.958Z,42400.00
2022-08-01T07:38:57.198Z,49504.00
2022-08-01T07:39:59.376Z,22016.00
2022-08-01T07:40:59.534Z,21952.00
2022-08-01T07:42:07.106Z,56992.00
2022-08-01T07:43:01.397Z,61376.00
2022-08-01T07:44:04.570Z,57408.00
2022-08-01T07:44:59.031Z,40416.00
2022-08-01T07:46:01.207Z,18944.00
2022-08-01T07:46:59.522Z,55808.00
2022-08-01T07:48:01.689Z,55872.00
2022-08-01T07:49:00.057Z,18752.00
2022-08-01T07:50:00.274Z,56576.00
2022-08-01T07:51:00.510Z,57856.00
2022-08-01T07:52:02.683Z,62432.00
2022-08-01T07:53:00.979Z,66112.00
2022-08-01T07:54:03.153Z,67072.00
2022-08-01T07:55:01.465Z,41056.00
2022-08-01T07:56:01.693Z,62048.00
2022-08-01T07:57:03.908Z,65632.00
2022-08-01T07:58:02.201Z,70848.00
2022-08-01T07:59:04.382Z,34528.00
2022-08-01T08:00:03.964Z,35904.00
2022-08-01T08:01:03.010Z,22592.00
2022-08-01T08:02:03.442Z,65472.00
2022-08-01T08:03:03.593Z,66240.00
2022-08-01T08:04:05.772Z,21888.00
2022-08-01T08:05:04.081Z,21952.00
2022-08-01T08:06:04.352Z,65952.00
2022-08-01T08:07:04.935Z,56768.00
2022-08-01T08:08:04.928Z,66784.00
2022-08-01T08:09:07.109Z,23872.00
2022-08-01T08:10:07.290Z,58208.00
2022-08-01T08:11:05.668Z,18368.00
2022-08-01T08:12:08.337Z,66400.00
2022-08-01T08:13:08.044Z,72288.00
2022-08-01T08:14:06.417Z,38688.00
2022-08-01T08:15:08.608Z,69056.00
2022-08-01T08:16:06.909Z,66976.00
2022-08-01T08:17:09.102Z,70112.00
2022-08-01T08:18:07.532Z,68864.00
2022-08-01T08:19:07.766Z,69152.00
2022-08-01T08:20:09.948Z,69824.00
2022-08-01T08:21:08.253Z,70208.00
2022-08-01T08:22:08.963Z,67456.00
2022-08-01T08:23:08.779Z,50560.00
2022-08-01T08:24:09.096Z,55168.00
2022-08-01T08:25:11.834Z,57344.00
2022-08-01T08:26:11.472Z,53792.00
2022-08-01T08:27:11.651Z,41248.00
2022-08-01T08:28:10.201Z,42336.00
2022-08-01T08:29:10.437Z,40064.00
2022-08-01T08:30:12.620Z,51776.00
2022-08-01T08:31:25.226Z,48160.00
2022-08-01T08:32:12.185Z,61344.00
2022-08-01T08:33:13.815Z,65760.00
2022-08-01T08:34:11.733Z,60032.00
2022-08-01T08:35:13.181Z,73024.00
2022-08-01T08:36:12.303Z,72192.00
2022-08-01T08:37:14.483Z,74144.00
2022-08-01T08:38:12.788Z,73536.00
2022-08-01T08:39:13.081Z,74048.00
2022-08-01T08:40:15.273Z,69568.00
2022-08-01T08:41:16.850Z,65152.00
2022-08-01T08:42:14.849Z,69856.00
2022-08-01T08:43:14.153Z,72064.00
2022-08-01T08:44:16.311Z,68352.00
2022-08-01T08:45:16.471Z,73952.00
2022-08-01T08:46:14.897Z,76032.00
2022-08-01T08:47:20.085Z,79072.00
2022-08-01T08:48:17.267Z,75712.00
2022-08-01T08:49:15.663Z,70368.00
2022-08-01T08:50:17.786Z,64576.00
2022-08-01T08:51:16.224Z,73152.00
2022-08-01T08:52:16.457Z,76288.00
2022-08-01T08:53:19.011Z,78624.00
2022-08-01T08:54:16.919Z,77440.00
2022-08-01T08:55:17.158Z,78080.00
2022-08-01T08:56:17.391Z,78048.00
2022-08-01T08:57:17.629Z,81280.00
2022-08-01T08:58:19.812Z,81440.00
2022-08-01T08:59:18.124Z,76800.00
2022-08-01T09:00:20.310Z,75648.00
2022-08-01T09:01:18.652Z,64928.00
2022-08-01T09:02:18.907Z,31200.00
2022-08-01T09:03:19.216Z,33824.00
2022-08-01T09:04:19.488Z,63808.00
2022-08-01T09:05:20.156Z,63840.00
2022-08-01T09:06:20.118Z,41664.00
2022-08-01T09:07:22.305Z,65408.00
2022-08-01T09:08:20.626Z,64832.00
2022-08-01T09:09:22.794Z,18108.00
2022-08-01T09:10:21.096Z,36000.00
2022-08-01T09:11:22.774Z,66624.00
2022-08-01T09:12:21.668Z,70848.00
2022-08-01T09:13:21.891Z,55360.00
2022-08-01T09:14:24.059Z,78048.00
2022-08-01T09:15:24.229Z,77696.00
2022-08-01T09:16:22.701Z,77856.00
2022-08-01T09:17:22.938Z,68896.00
2022-08-01T09:18:23.168Z,81888.00
2022-08-01T09:19:40.351Z,63616.00
2022-08-01T09:20:26.705Z,79872.00
2022-08-01T09:21:24.035Z,79712.00
2022-08-01T09:22:25.123Z,77408.00
2022-08-01T09:23:25.542Z,77696.00
2022-08-01T09:24:30.916Z,76640.00
2022-08-01T09:25:29.849Z,77280.00
2022-08-01T09:26:27.043Z,76736.00
2022-08-01T09:27:26.433Z,79712.00
2022-08-01T09:28:25.852Z,80608.00
2022-08-01T09:29:37.555Z,80032.00
2022-08-01T09:30:29.285Z,80352.00
2022-08-01T09:31:26.609Z,81568.00
2022-08-01T09:32:34.738Z,83392.00
2022-08-01T09:33:28.162Z,86464.00
2022-08-01T09:34:27.495Z,62720.00
2022-08-01T09:35:31.559Z,87296.00
2022-08-01T09:36:27.992Z,85696.00
2022-08-01T09:37:28.265Z,85280.00
2022-08-01T09:38:29.493Z,84992.00
2022-08-01T09:39:28.842Z,71040.00
2022-08-01T09:40:29.085Z,90784.00
2022-08-01T09:41:37.905Z,89152.00
2022-08-01T09:42:30.574Z,64640.00
2022-08-01T09:43:29.878Z,56224.00
2022-08-01T09:44:42.069Z,79328.00
2022-08-01T09:45:41.520Z,83104.00
2022-08-01T09:46:32.469Z,85664.00
2022-08-01T09:47:30.894Z,87232.00
2022-08-01T09:48:34.548Z,77376.00
2022-08-01T09:49:50.412Z,78240.00
2022-08-01T09:50:32.616Z,64576.00
2022-08-01T09:51:59.646Z,77152.00
2022-08-01T09:52:34.981Z,73792.00
2022-08-01T09:53:33.411Z,88448.00
2022-08-01T09:54:33.571Z,93568.00
2022-08-01T09:55:34.125Z,91616.00
2022-08-01T09:56:35.171Z,98368.00
2022-08-01T09:57:34.565Z,97600.00
2022-08-01T09:58:35.373Z,102272.00
2022-08-01T09:59:56.801Z,96672.00
2022-08-01T10:00:45.296Z,100064.00
2022-08-01T10:01:38.586Z,89376.00
2022-08-01T10:02:34.956Z,95264.00
2022-08-01T10:03:37.192Z,86976.00
2022-08-01T10:04:35.485Z,89792.00
2022-08-01T10:05:37.173Z,87136.00
2022-08-01T10:06:37.889Z,96256.00
2022-08-01T10:07:43.425Z,94144.00
2022-08-01T10:08:39.253Z,91104.00
2022-08-01T10:09:39.984Z,92704.00
2022-08-01T10:10:37.502Z,81056.00
2022-08-01T10:11:39.253Z,94976.00
2022-08-01T10:12:37.616Z,96800.00
2022-08-01T10:13:37.860Z,94912.00
2022-08-01T10:14:40.157Z,80960.00
2022-08-01T10:15:38.497Z,82336.00
2022-08-01T10:16:40.781Z,95040.00
2022-08-01T10:17:50.669Z,95200.00
2022-08-01T10:18:40.440Z,48864.00
2022-08-01T10:19:41.631Z,91904.00
2022-08-01T10:20:40.014Z,83456.00
2022-08-01T10:21:56.112Z,98048.00
2022-08-01T10:22:43.349Z,99392.00
2022-08-01T10:23:41.355Z,102592.00
2022-08-01T10:24:41.260Z,87744.00
2022-08-01T10:25:47.105Z,94144.00
2022-08-01T10:26:43.644Z,95552.00
2022-08-01T10:27:43.824Z,95424.00
2022-08-01T10:28:42.379Z,82496.00
2022-08-01T10:29:45.939Z,76160.00
2022-08-01T10:30:43.909Z,84512.00
2022-08-01T10:31:43.189Z,80512.00
2022-08-01T10:32:50.967Z,85248.00
2022-08-01T10:33:50.584Z,90368.00
2022-08-01T10:34:46.734Z,80928.00
2022-08-01T10:35:47.568Z,91072.00
2022-08-01T10:36:44.522Z,41088.00
2022-08-01T10:37:51.888Z,71360.00
2022-08-01T10:38:46.064Z,41408.00
2022-08-01T10:39:47.284Z,93792.00
2022-08-01T10:40:45.675Z,100160.00
2022-08-01T10:41:45.919Z,97216.00
2022-08-01T10:42:46.209Z,97952.00
2022-08-01T10:43:47.122Z,68096.00
2022-08-01T10:44:46.830Z,93440.00
2022-08-01T10:45:49.016Z,90272.00
2022-08-01T10:46:49.217Z,87296.00
2022-08-01T10:47:50.084Z,93984.00
2022-08-01T10:48:49.844Z,85056.00
2022-08-01T10:49:48.264Z,97568.00
2022-08-01T10:50:49.321Z,84672.00
2022-08-01T10:51:52.392Z,97792.00
2022-08-01T10:52:50.691Z,98336.00
2022-08-01T10:53:50.877Z,85728.00
2022-08-01T10:54:52.414Z,104224.00
2022-08-01T10:55:51.789Z,60576.00
2022-08-01T10:56:50.094Z,49696.00
2022-08-01T10:57:52.925Z,95968.00
2022-08-01T10:58:50.775Z,102272.00
2022-08-01T11:00:00.896Z,98016.00
2022-08-01T11:00:54.222Z,93216.00
2022-08-01T11:01:53.452Z,111968.00
2022-08-01T11:02:53.586Z,89184.00
2022-08-01T11:03:59.053Z,101760.00
2022-08-01T11:04:53.401Z,103488.00
2022-08-01T11:05:52.704Z,91200.00
2022-08-01T11:06:52.928Z,91104.00
2022-08-01T11:07:55.117Z,88672.00
2022-08-01T11:08:53.506Z,66176.00
2022-08-01T11:09:53.874Z,114656.00
2022-08-01T11:10:54.105Z,95456.00
2022-08-01T11:11:56.288Z,96000.00
2022-08-01T11:12:54.610Z,102304.00
2022-08-01T11:13:54.854Z,86688.00
2022-08-01T11:14:56.060Z,93792.00
2022-08-01T11:15:55.431Z,84416.00
2022-08-01T11:16:57.609Z,95552.00
2022-08-01T11:17:55.926Z,107680.00
2022-08-01T11:19:00.070Z,56416.00
2022-08-01T11:19:56.528Z,115456.00
2022-08-01T11:21:57.405Z,83488.00
2022-08-01T11:22:01.189Z,112320.00
2022-08-01T11:22:57.300Z,42592.00
2022-08-01T11:23:57.776Z,37344.00
2022-08-01T11:24:57.778Z,42656.00
2022-08-01T11:26:05.786Z,110080.00
2022-08-01T11:27:01.135Z,119616.00
2022-08-01T11:27:58.665Z,42720.00
2022-08-01T11:29:19.031Z,96096.00
2022-08-01T11:30:02.175Z,47616.00
2022-08-01T11:30:59.500Z,104288.00
2022-08-01T11:31:59.753Z,112416.00
2022-08-01T11:33:11.434Z,109920.00
2022-08-01T11:34:03.539Z,113408.00
2022-08-01T11:35:00.683Z,54848.00
2022-08-01T11:36:02.851Z,38816.00
2022-08-01T11:37:03.212Z,41856.00
2022-08-01T11:38:03.217Z,47648.00
2022-08-01T11:39:03.404Z,59360.00
2022-08-01T11:40:03.177Z,51872.00
2022-08-01T11:41:04.292Z,123392.00
2022-08-01T11:42:04.474Z,120960.00
2022-08-01T11:43:04.649Z,110496.00
2022-08-01T11:44:04.917Z,95392.00
2022-08-01T11:45:05.049Z,99552.00
2022-08-01T11:46:05.737Z,78752.00
2022-08-01T11:47:08.936Z,64992.00
2022-08-01T11:48:07.224Z,76160.00
2022-08-01T11:49:06.467Z,74624.00
2022-08-01T11:50:06.613Z,51744.00
2022-08-01T11:51:06.806Z,62720.00
2022-08-01T11:52:07.477Z,58880.00
2022-08-01T11:53:07.664Z,116000.00
2022-08-01T11:54:07.845Z,115008.00
2022-08-01T11:55:10.477Z,65856.00
2022-08-01T11:56:08.185Z,49024.00
2022-08-01T11:57:08.663Z,60384.00
2022-08-01T11:58:08.857Z,111232.00
2022-08-01T11:59:08.349Z,100192.00
2022-08-01T12:00:09.018Z,103008.00
2022-08-01T12:01:09.783Z,102688.00
2022-08-01T12:02:09.984Z,82432.00
2022-08-01T12:03:10.124Z,76064.00
2022-08-01T12:04:10.813Z,111552.00
2022-08-01T12:05:12.161Z,104000.00
2022-08-01T12:06:11.221Z,108288.00
2022-08-01T12:07:11.415Z,104800.00
2022-08-01T12:08:11.594Z,101568.00
2022-08-01T12:09:12.110Z,101856.00
2022-08-01T12:10:12.348Z,97440.00
2022-08-01T12:11:12.528Z,102784.00
2022-08-01T12:12:12.703Z,98080.00
2022-08-01T12:13:13.388Z,98304.00
2022-08-01T12:14:11.695Z,100576.00
2022-08-01T12:15:13.891Z,103712.00
2022-08-01T12:16:14.036Z,97632.00